EDT,Max TemperatureF,Mean TemperatureF,Min TemperatureF,Max Dew PointF,MeanDew PointF,Min DewpointF,Max Humidity, Mean Humidity, Min Humidity, Max Sea Level PressureIn, Mean Sea Level PressureIn, Min Sea Level PressureIn, Max VisibilityMiles, Mean VisibilityMiles, Min VisibilityMiles, Max Wind SpeedMPH, Mean Wind SpeedMPH, Max Gust SpeedMPH,PrecipitationIn, CloudCover, Events, WindDirDegrees
2012-10-1,66,52,37,50,43,37,97,73,42,29.96,29.91,29.86,10,8,0,6,1,,0.00,2,Fog,106
2012-10-2,70,61,52,53,49,47,89,68,43,29.93,29.87,29.82,10,10,10,10,2,17,0.00,7,Rain,52
2012-10-3,66,61,56,58,54,52,95,79,59,30.05,29.98,29.91,10,9,0,8,2,,0.00,8,Fog,181
2012-10-4,76,66,55,60,52,47,91,65,36,30.08,30.04,29.98,10,10,5,25,4,34,0.00,4,Rain,221
2012-10-5,61,53,45,59,45,39,91,78,55,30.08,30.03,29.96,10,10,7,12,7,17,0.00,6,Rain,250
2012-10-6,47,43,39,41,37,33,89,76,61,30.12,30.02,29.93,10,10,7,17,6,22,0.00,7,Rain,261
2012-10-7,47,42,36,38,36,32,93,77,58,30.14,30.10,30.08,10,10,10,8,1,,0.00,7,,219
2012-10-8,54,43,32,34,29,24,96,63,31,30.19,30.13,30.08,10,10,10,9,3,17,0.00,1,,193
2012-10-9,62,50,39,37,33,29,70,51,33,30.09,29.96,29.79,10,10,10,13,6,24,0.00,0,,182
2012-10-10,54,45,35,43,35,26,93,72,48,30.15,29.95,29.77,10,10,7,21,9,31,0.00,8,Rain,275
2012-10-11,61,47,33,41,32,30,88,62,32,30.19,30.10,30.01,10,10,10,18,5,30,0.00,2,Rain,217
2012-10-12,50,42,33,39,31,22,92,70,33,30.45,30.36,30.21,10,10,10,10,3,18,0.00,1,Rain,10
2012-10-13,63,48,35,62,40,30,95,85,70,30.36,30.12,29.87,10,8,3,15,7,22,0.00,5,Rain,161
2012-10-14,70,62,53,63,60,50,93,83,64,29.86,29.64,29.42,10,7,2,21,8,30,0.00,7,Rain,193
2012-10-15,52,49,46,49,42,39,90,79,72,29.95,29.79,29.55,10,10,7,18,13,31,0.00,8,Rain,285
2012-10-16,61,48,34,43,38,33,95,66,42,29.98,29.87,29.71,10,10,10,12,5,25,0.00,2,Rain,168
2012-10-17,74,64,53,55,48,41,90,62,31,29.71,29.62,29.54,10,10,5,20,10,30,0.00,4,Rain,174
2012-10-18,59,54,46,55,44,34,91,68,40,29.64,29.49,29.34,10,10,7,18,10,29,0.00,6,Rain,181
2012-10-19,52,47,42,46,42,38,93,83,69,29.63,29.56,29.53,10,10,4,13,3,20,0.00,7,Rain,153
2012-10-20,56,50,45,45,43,40,93,80,56,29.91,29.71,29.57,10,9,7,14,4,18,0.00,6,Rain,260
2012-10-21,62,49,36,47,40,35,97,75,42,30.09,30.04,29.91,10,7,0,8,2,,0.00,1,Fog,217
2012-10-22,71,58,45,59,51,41,94,77,62,30.07,30.02,29.95,10,9,3,12,5,,0.00,4,Rain,161
2012-10-23,65,62,60,60,59,59,95,90,82,29.99,29.95,29.89,10,6,2,9,4,,0.00,8,Rain,211
2012-10-24,79,69,59,61,59,57,92,75,49,30.02,29.98,29.94,10,9,5,9,3,16,0.00,3,Rain,179
2012-10-25,77,68,58,58,55,53,81,62,46,29.96,29.89,29.81,10,10,10,18,5,31,0.00,1,,180
2012-10-26,70,55,39,54,38,32,92,71,53,30.24,30.15,29.81,10,10,4,21,10,28,0.00,5,Rain,319
2012-10-27,51,42,33,34,32,30,88,67,47,30.24,30.21,30.15,10,10,10,13,6,18,0.00,2,,4
2012-10-28,46,40,34,35,30,24,83,68,51,30.23,30.19,30.15,10,10,10,21,8,26,0.00,5,,8
2012-10-29,44,40,36,29,25,18,74,58,38,30.15,30.03,29.80,10,10,10,24,14,34,0.00,4,,348
2012-10-30,40,37,34,36,33,22,93,87,48,29.79,29.59,29.53,10,5,2,26,19,38,0.00,8,Rain-Snow,339
2012-10-31,41,38,36,38,37,34,95,91,85,29.69,29.61,29.56,10,5,2,15,12,23,0.00,8,Rain,310